Urania — PAFG — position and weather

sailwx.info

Track history (hours):
 
Tides and Currents Weather Stations Pressure Air Temp Water Temp Dewpoint Dewpoint Depression Visibility Wind Speed Wind Dir Waves Ship Positions

Urania (Netherlands)

Flagship of the Royal Netherlands Naval College.

Last reported at 2018-Jun-19 01:25 UTC. Time now 2018-Jun-19 01:27 UTC.
Position N 53°06' E 005°18'.

Length 27 m; draft 2.6 m.

Type: Sailing vessel. MMSI: 245804000.

Date/timePositionNaut miles runAvg speedWind from/ knotsBaromVisibWave heightAir tempDewpointWater temp
2018-Jun-19 01:25N 53°06' E 005°18'0 0.0
2018-Jun-19 00:58N 53°06' E 005°18'0 0.0
2018-Jun-19 00:22N 53°06' E 005°18'0 0.0
2018-Jun-18 23:58N 53°06' E 005°18'0 0.0
2018-Jun-18 23:28N 53°06' E 005°18'0 0.0
2018-Jun-18 22:58N 53°06' E 005°18'0 0.0
2018-Jun-18 22:28N 53°06' E 005°18'0 0.0
2018-Jun-18 21:55N 53°06' E 005°18'0 0.0
2018-Jun-18 21:22N 53°06' E 005°18'0 0.0
2018-Jun-18 20:52N 53°06' E 005°18'0 0.0
2018-Jun-18 20:28N 53°06' E 005°18'0 0.0
2018-Jun-18 19:58N 53°06' E 005°18'0 0.0
2018-Jun-18 19:28N 53°06' E 005°18'0 0.0
2018-Jun-18 18:58N 53°06' E 005°18'0 0.0
2018-Jun-18 18:28N 53°06' E 005°18'0 0.8
2018-Jun-18 18:00N 53°06' E 005°18'1 2.9
2018-Jun-18 17:30N 53°05' E 005°17'2 5.1
2018-Jun-18 17:01N 53°03' E 005°14'3 5.1
2018-Jun-18 16:31N 53°02' E 005°10'3 5.4
2018-Jun-18 16:01N 53°02' E 005°05'3 5.6
2018-Jun-18 15:30N 53°04' E 005°01'3 5.4
2018-Jun-18 15:00N 53°04' E 004°57'2 4.3
2018-Jun-18 14:30N 53°02' E 004°54'2 4.5
2018-Jun-18 14:01N 53°01' E 004°51'2 4.6
2018-Jun-18 13:31N 52°59' E 004°49'2 4.2
2018-Jun-18 13:01N 52°59' E 004°45'1 1.1
2018-Jun-18 12:30N 52°59' E 004°46'1 1.3
2018-Jun-18 11:58N 52°59' E 004°47'1 1.5
2018-Jun-18 11:14N 52°58' E 004°47'0 0.0
2018-Jun-18 10:59N 52°58' E 004°47'0 0.0
2018-Jun-18 10:29N 52°58' E 004°47'0 0.0
2018-Jun-18 09:59N 52°58' E 004°47'0 0.0
2018-Jun-18 09:26N 52°58' E 004°47'0 0.0
2018-Jun-18 08:59N 52°58' E 004°47'0 0.0
2018-Jun-18 06:11N 52°58' E 004°47'0 0.0
2018-Jun-18 05:53N 52°58' E 004°47'0 0.0
2018-Jun-18 05:25N 52°58' E 004°47'0 0.0
2018-Jun-18 04:02N 52°58' E 004°47'0 0.0
2018-Jun-18 03:49N 52°58' E 004°47'0 0.0
2018-Jun-18 03:01N 52°58' E 004°47'0 0.0
2018-Jun-18 02:49N 52°58' E 004°47'0 0.0
2018-Jun-18 02:22N 52°58' E 004°47'0 0.0
2018-Jun-18 01:46N 52°58' E 004°47'0 0.0
2018-Jun-18 01:28N 52°58' E 004°47'0 0.0
2018-Jun-18 00:58N 52°58' E 004°47'0 0.0
2018-Jun-18 00:10N 52°58' E 004°47'0 0.0
2018-Jun-17 23:58N 52°58' E 004°47'0 0.0
2018-Jun-17 23:13N 52°58' E 004°47'0 0.0
2018-Jun-17 22:52N 52°58' E 004°47'0 0.0
2018-Jun-17 22:28N 52°58' E 004°47'0 0.0
2018-Jun-17 21:52N 52°58' E 004°47'0 0.0
2018-Jun-17 21:25N 52°58' E 004°47'0 0.0
2018-Jun-17 20:58N 52°58' E 004°47'0 0.0
2018-Jun-17 20:13N 52°58' E 004°47'0 0.0
2018-Jun-17 19:55N 52°58' E 004°47'0 0.0
2018-Jun-17 19:13N 52°58' E 004°47'0 0.0
2018-Jun-17 18:58N 52°58' E 004°47'0 0.0
2018-Jun-17 17:58N 52°58' E 004°47'0 0.0
2018-Jun-17 17:13N 52°58' E 004°47'0 0.0
2018-Jun-17 16:58N 52°58' E 004°47'0 0.0
2018-Jun-17 16:25N 52°58' E 004°47'0 0.0
2018-Jun-17 15:13N 52°58' E 004°47'0 0.0
2018-Jun-17 14:55N 52°58' E 004°47'0 0.0
2018-Jun-17 14:25N 52°58' E 004°47'0 0.0
2018-Jun-17 13:25N 52°58' E 004°47'0 0.0
2018-Jun-17 11:40N 52°58' E 004°47'0 0.0
2018-Jun-17 10:52N 52°58' E 004°47'0 0.0
2018-Jun-17 10:25N 52°58' E 004°47'0 0.0
2018-Jun-17 09:58N 52°58' E 004°47'0 0.0
2018-Jun-17 09:25N 52°58' E 004°47'0 0.0
2018-Jun-17 08:58N 52°58' E 004°47'0 0.0
2018-Jun-17 08:25N 52°58' E 004°47'0 0.0
2018-Jun-17 07:55N 52°58' E 004°47'0 0.0
2018-Jun-17 07:25N 52°58' E 004°47'0 0.0
2018-Jun-17 06:55N 52°58' E 004°47'0 0.0
2018-Jun-17 01:55N 52°58' E 004°47'0 0.0
2018-Jun-17 01:25N 52°58' E 004°47'0 0.0
2018-Jun-17 00:58N 52°58' E 004°47'0 0.0
2018-Jun-17 00:13N 52°58' E 004°47'0 0.0
2018-Jun-16 23:43N 52°58' E 004°47'0 0.0
2018-Jun-16 23:25N 52°58' E 004°47'0 0.0
2018-Jun-16 22:52N 52°58' E 004°47'0 0.0
2018-Jun-16 22:25N 52°58' E 004°47'0 0.0
2018-Jun-16 21:55N 52°58' E 004°47'0 0.0
2018-Jun-16 21:13N 52°58' E 004°47'0 0.0
2018-Jun-16 20:49N 52°58' E 004°47'0 0.0
2018-Jun-16 20:19N 52°58' E 004°47'0 0.0
2018-Jun-16 19:58N 52°58' E 004°47'0 0.0
2018-Jun-16 19:13N 52°58' E 004°47'0 0.0
2018-Jun-16 18:58N 52°58' E 004°47'0 0.0
2018-Jun-16 18:28N 52°58' E 004°47'0 0.0
2018-Jun-16 17:58N 52°58' E 004°47'0 0.0
2018-Jun-16 17:28N 52°58' E 004°47'0 0.0
2018-Jun-16 16:58N 52°58' E 004°47'0 0.0
2018-Jun-16 15:43N 52°58' E 004°47'0 0.0
2018-Jun-16 11:12N 52°58' E 004°47'0 0.0
2018-Jun-16 10:48N 52°58' E 004°47'0 0.0
2018-Jun-16 10:30N 52°58' E 004°47'0 0.0
2018-Jun-16 09:57N 52°58' E 004°47'0 0.0
2018-Jun-16 09:12N 52°58' E 004°47'0 0.0
2018-Jun-16 09:00N 52°58' E 004°47'0 0.0
2018-Jun-16 08:18N 52°58' E 004°47'0 0.0
2018-Jun-16 05:09N 52°58' E 004°47'0 0.0
2018-Jun-16 03:33N 52°58' E 004°47'0 0.0
2018-Jun-16 03:09N 52°58' E 004°47'0 0.0
2018-Jun-16 03:00N 52°58' E 004°47'0 0.0
2018-Jun-16 02:18N 52°58' E 004°47'0 0.0
2018-Jun-16 01:45N 52°58' E 004°47'0 0.0
2018-Jun-16 01:24N 52°58' E 004°47'0 0.0
2018-Jun-16 01:00N 52°58' E 004°47'0 0.0
2018-Jun-16 00:24N 52°58' E 004°47'0 0.0
2018-Jun-15 23:57N 52°58' E 004°47'0 0.0
2018-Jun-15 17:00N 52°58' E 004°47'0 0.0
2018-Jun-15 15:30N 52°58' E 004°47'0 0.0
2018-Jun-15 14:57N 52°58' E 004°47'0 0.0
2018-Jun-15 14:27N 52°58' E 004°47'0 0.0
2018-Jun-15 14:00N 52°58' E 004°47'0 0.0
2018-Jun-15 13:30N 52°58' E 004°47'0 0.0
2018-Jun-15 13:00N 52°58' E 004°47'0 0.0
2018-Jun-15 12:24N 52°58' E 004°47'0 0.0
2018-Jun-15 12:00N 52°58' E 004°47'0 0.0
2018-Jun-15 11:30N 52°58' E 004°47'0 0.0
2018-Jun-15 10:59N 52°58' E 004°47'0 0.0
2018-Jun-15 10:25N 52°58' E 004°47'0 0.0
2018-Jun-15 10:00N 52°58' E 004°47'0 0.0
2018-Jun-15 09:30N 52°58' E 004°47'0 0.0
2018-Jun-15 09:00N 52°58' E 004°47'0 0.0
2018-Jun-15 08:27N 52°58' E 004°47'0 0.0
2018-Jun-15 08:00N 52°58' E 004°47'0 0.0
2018-Jun-15 07:17N 52°58' E 004°47'0 1.5
2018-Jun-15 07:00N 52°58' E 004°47'2 3.6
2018-Jun-15 06:30N 52°59' E 004°49'2 3.6
2018-Jun-15 06:00N 53°01' E 004°51'2 3.4
2018-Jun-15 05:30N 53°02' E 004°54'2 3.5
2018-Jun-15 04:59N 53°02' E 004°56'2 3.8
2018-Jun-15 04:30N 53°03' E 004°59'1 1.7
2018-Jun-15 03:53N 53°03' E 005°01'0 0.0
2018-Jun-15 03:29N 53°03' E 005°01'0 0.1
2018-Jun-15 02:59N 53°03' E 005°01'0 0.0
2018-Jun-15 02:26N 53°03' E 005°01'0 0.0
2018-Jun-15 01:59N 53°03' E 005°01'0 0.0
2018-Jun-15 01:29N 53°03' E 005°01'0 0.0
2018-Jun-15 00:56N 53°03' E 005°01'0 0.0
2018-Jun-15 00:26N 53°03' E 005°01'0 0.0
2018-Jun-14 23:56N 53°03' E 005°01'0 0.0
2018-Jun-14 23:29N 53°03' E 005°01'0 0.0
2018-Jun-14 22:59N 53°03' E 005°01'0 0.0
2018-Jun-14 22:29N 53°03' E 005°01'0 0.0
2018-Jun-14 21:59N 53°03' E 005°01'0 0.0
2018-Jun-14 21:26N 53°03' E 005°01'0 0.0
2018-Jun-14 20:53N 53°03' E 005°01'0 0.0
2018-Jun-14 20:29N 53°03' E 005°01'0 0.0
2018-Jun-14 19:59N 53°03' E 005°01'0 0.0
2018-Jun-14 19:23N 53°03' E 005°01'0 0.0
2018-Jun-14 18:56N 53°03' E 005°01'0 0.0
2018-Jun-14 18:29N 53°03' E 005°01'0 0.0
2018-Jun-14 17:56N 53°03' E 005°01'0 0.0
2018-Jun-14 17:26N 53°03' E 005°01'0 0.0
2018-Jun-14 16:59N 53°03' E 005°01'0 0.0
2018-Jun-14 16:29N 53°03' E 005°01'0 0.0
2018-Jun-14 15:59N 53°03' E 005°01'0 0.0
2018-Jun-14 15:29N 53°03' E 005°01'0 0.6
2018-Jun-14 15:00N 53°03' E 005°01'0 0.7
2018-Jun-14 14:30N 53°04' E 005°01'2 4.3
2018-Jun-14 14:00N 53°02' E 005°04'2 4.2
2018-Jun-14 13:30N 53°02' E 005°08'2 3.8
2018-Jun-14 13:00N 53°03' E 005°11'2 3.9
2018-Jun-14 12:30N 53°03' E 005°14'2 4.9
2018-Jun-14 12:00N 53°05' E 005°17'2 4.4
2018-Jun-14 11:30N 53°05' E 005°21'3 6.2
2018-Jun-14 11:00N 53°08' E 005°23'3 5.1
2018-Jun-14 10:30N 53°11' E 005°23'4 7.2
2018-Jun-14 10:00N 53°12' E 005°18'3 6.7
2018-Jun-14 09:30N 53°14' E 005°13'3 5.8
2018-Jun-14 09:00N 53°16' E 005°10'3 5.3
2018-Jun-14 08:31N 53°18' E 005°13'2 3.8
2018-Jun-14 08:00N 53°20' E 005°14'2 3.6
2018-Jun-14 07:28N 53°22' E 005°13'0 0.0
2018-Jun-14 06:52N 53°22' E 005°13'0 0.0
2018-Jun-14 06:25N 53°22' E 005°13'0 0.0
2018-Jun-14 05:58N 53°22' E 005°13'0 0.0
2018-Jun-14 05:28N 53°22' E 005°13'0 0.0
2018-Jun-14 04:58N 53°22' E 005°13'0 0.0
2018-Jun-14 04:25N 53°22' E 005°13'0 0.0
2018-Jun-14 03:58N 53°22' E 005°13'0 0.0
2018-Jun-14 03:25N 53°22' E 005°13'0 0.0
2018-Jun-14 02:55N 53°22' E 005°13'0 0.0
2018-Jun-14 02:28N 53°22' E 005°13'0 0.0
2018-Jun-14 01:55N 53°22' E 005°13'0 0.0
2018-Jun-14 01:25N 53°22' E 005°13'0 0.0
2018-Jun-14 00:55N 53°22' E 005°13'0 0.0
2018-Jun-14 00:28N 53°22' E 005°13'0 0.0
2018-Jun-13 23:58N 53°22' E 005°13'0 0.0
2018-Jun-13 23:28N 53°22' E 005°13'0 0.0
2018-Jun-13 22:55N 53°22' E 005°13'0 0.0
2018-Jun-13 22:28N 53°22' E 005°13'0 0.0
2018-Jun-13 21:58N 53°22' E 005°13'0 0.0
2018-Jun-13 21:28N 53°22' E 005°13'0 0.0
2018-Jun-13 20:55N 53°22' E 005°13'0 0.0
2018-Jun-13 20:28N 53°22' E 005°13'0 0.6
2018-Jun-13 20:00N 53°21' E 005°13'3 5.7
2018-Jun-13 19:31N 53°20' E 005°09'2 4.7
2018-Jun-13 19:00N 53°19' E 005°05'4 7.6
2018-Jun-13 18:30N 53°19' E 004°59'1 2.7
2018-Jun-13 18:00N 53°20' E 004°58'3 5.6
2018-Jun-13 17:30N 53°23' E 005°00'2 4.7
2018-Jun-13 17:00N 53°25' E 005°03'2 4.5
2018-Jun-13 16:30N 53°26' E 005°06'2 4.8
2018-Jun-13 16:00N 53°28' E 005°09'2 4.3
2018-Jun-13 15:30N 53°30' E 005°10'298 6.8
2018-Jun-11 19:51N 58°27' E 005°01'3 7.1
2018-Jun-11 19:28N 58°30' E 005°01'3 6.6
2018-Jun-11 18:58N 58°33' E 005°01'3 6.0
2018-Jun-11 18:28N 58°36' E 005°02'3 6.3
2018-Jun-11 17:59N 58°39' E 005°02'3 6.5
2018-Jun-11 17:30N 58°42' E 005°03'3 6.5
2018-Jun-11 17:00N 58°46' E 005°04'3 6.3
2018-Jun-11 16:29N 58°49' E 005°04'3 6.2
2018-Jun-11 16:00N 58°52' E 005°04'3 6.4
2018-Jun-11 15:30N 58°55' E 005°05'3 6.6
2018-Jun-11 15:00N 58°58' E 005°07'4 7.2
2018-Jun-11 14:31N 59°01' E 005°11'4 7.2
2018-Jun-11 14:00N 59°04' E 005°15'3 6.0
2018-Jun-11 13:30N 59°06' E 005°19'3 5.3
2018-Jun-11 13:00N 59°07' E 005°24'2 4.4
2018-Jun-11 12:30N 59°08' E 005°28'1 3.0
2018-Jun-11 12:00N 59°07' E 005°30'1 3.0
2018-Jun-11 11:30N 59°06' E 005°31'1 2.2
2018-Jun-11 11:00N 59°05' E 005°32'1 1.9
2018-Jun-11 10:30N 59°04' E 005°33'1 2.7
2018-Jun-11 10:00N 59°03' E 005°35'1 2.7
2018-Jun-11 09:30N 59°02' E 005°37'2 3.1
2018-Jun-11 09:00N 59°01' E 005°39'2 4.9
2018-Jun-11 08:30N 59°02' E 005°44'1 1.5
2018-Jun-11 08:00N 59°02' E 005°45'0 0.0
2018-Jun-11 07:30N 59°02' E 005°45'0 0.0
2018-Jun-11 07:00N 59°02' E 005°45'0 0.0
2018-Jun-11 06:30N 59°02' E 005°45'0 0.0
2018-Jun-11 06:00N 59°02' E 005°45'0 0.0
2018-Jun-11 05:30N 59°02' E 005°45'0 0.0
2018-Jun-11 05:00N 59°02' E 005°45'0 0.0
2018-Jun-11 04:30N 59°02' E 005°45'0 0.0
2018-Jun-11 04:00N 59°02' E 005°45'0 0.0
2018-Jun-11 03:30N 59°02' E 005°45'0 0.0
2018-Jun-11 03:00N 59°02' E 005°45'0 0.0
2018-Jun-11 02:30N 59°02' E 005°45'0 0.0
2018-Jun-11 02:00N 59°02' E 005°45'0 0.0
2018-Jun-11 01:30N 59°02' E 005°45'0 0.0
2018-Jun-11 01:00N 59°02' E 005°45'0 0.0
2018-Jun-11 00:30N 59°02' E 005°45'0 0.0
2018-Jun-11 00:00N 59°02' E 005°45'0 0.0
2018-Jun-10 23:30N 59°02' E 005°45'0 0.0
2018-Jun-10 23:00N 59°02' E 005°45'0 0.0
2018-Jun-10 22:30N 59°02' E 005°45'0 0.0
2018-Jun-10 21:59N 59°02' E 005°45'0 0.0
2018-Jun-10 21:29N 59°02' E 005°45'0 0.0
2018-Jun-10 20:59N 59°02' E 005°45'0 0.0
2018-Jun-10 20:29N 59°02' E 005°45'0 0.8
2018-Jun-10 20:00N 59°02' E 005°45'3 5.6
2018-Jun-10 19:30N 59°01' E 005°40'3 6.4
2018-Jun-10 19:00N 59°03' E 005°35'3 6.2
2018-Jun-10 18:30N 59°06' E 005°31'3 6.6
2018-Jun-10 18:00N 59°07' E 005°26'3 6.6
2018-Jun-10 17:30N 59°09' E 005°21'3 6.6
2018-Jun-10 17:00N 59°12' E 005°20'3 6.6
2018-Jun-10 16:30N 59°16' E 005°20'  
Track history (hours):
 
Tides and Currents Weather Stations Pressure Air Temp Water Temp Dewpoint Dewpoint Depression Visibility Wind Speed Wind Dir Waves Ship Positions

Urania (Netherlands)

Flagship of the Royal Netherlands Naval College.

Last reported at 2018-Jun-19 01:25 UTC. Time now 2018-Jun-19 01:27 UTC.
Position N 53°06' E 005°18'.

Length 27 m; draft 2.6 m.

Type: Sailing vessel. MMSI: 245804000.

Date/timePositionNaut miles runAvg speedWind from/ knotsBaromVisibWave heightAir tempDewpointWater temp
2018-Jun-19 01:25N 53°06' E 005°18'0 0.0
2018-Jun-19 00:58N 53°06' E 005°18'0 0.0
2018-Jun-19 00:22N 53°06' E 005°18'0 0.0
2018-Jun-18 23:58N 53°06' E 005°18'0 0.0
2018-Jun-18 23:28N 53°06' E 005°18'0 0.0
2018-Jun-18 22:58N 53°06' E 005°18'0 0.0
2018-Jun-18 22:28N 53°06' E 005°18'0 0.0
2018-Jun-18 21:55N 53°06' E 005°18'0 0.0
2018-Jun-18 21:22N 53°06' E 005°18'0 0.0
2018-Jun-18 20:52N 53°06' E 005°18'0 0.0
2018-Jun-18 20:28N 53°06' E 005°18'0 0.0
2018-Jun-18 19:58N 53°06' E 005°18'0 0.0
2018-Jun-18 19:28N 53°06' E 005°18'0 0.0
2018-Jun-18 18:58N 53°06' E 005°18'0 0.0
2018-Jun-18 18:28N 53°06' E 005°18'0 0.8
2018-Jun-18 18:00N 53°06' E 005°18'1 2.9
2018-Jun-18 17:30N 53°05' E 005°17'2 5.1
2018-Jun-18 17:01N 53°03' E 005°14'3 5.1
2018-Jun-18 16:31N 53°02' E 005°10'3 5.4
2018-Jun-18 16:01N 53°02' E 005°05'3 5.6
2018-Jun-18 15:30N 53°04' E 005°01'3 5.4
2018-Jun-18 15:00N 53°04' E 004°57'2 4.3
2018-Jun-18 14:30N 53°02' E 004°54'2 4.5
2018-Jun-18 14:01N 53°01' E 004°51'2 4.6
2018-Jun-18 13:31N 52°59' E 004°49'2 4.2
2018-Jun-18 13:01N 52°59' E 004°45'1 1.1
2018-Jun-18 12:30N 52°59' E 004°46'1 1.3
2018-Jun-18 11:58N 52°59' E 004°47'1 1.5
2018-Jun-18 11:14N 52°58' E 004°47'0 0.0
2018-Jun-18 10:59N 52°58' E 004°47'0 0.0
2018-Jun-18 10:29N 52°58' E 004°47'0 0.0
2018-Jun-18 09:59N 52°58' E 004°47'0 0.0
2018-Jun-18 09:26N 52°58' E 004°47'0 0.0
2018-Jun-18 08:59N 52°58' E 004°47'0 0.0
2018-Jun-18 06:11N 52°58' E 004°47'0 0.0
2018-Jun-18 05:53N 52°58' E 004°47'0 0.0
2018-Jun-18 05:25N 52°58' E 004°47'0 0.0
2018-Jun-18 04:02N 52°58' E 004°47'0 0.0
2018-Jun-18 03:49N 52°58' E 004°47'0 0.0
2018-Jun-18 03:01N 52°58' E 004°47'0 0.0
2018-Jun-18 02:49N 52°58' E 004°47'0 0.0
2018-Jun-18 02:22N 52°58' E 004°47'0 0.0
2018-Jun-18 01:46N 52°58' E 004°47'0 0.0
2018-Jun-18 01:28N 52°58' E 004°47'0 0.0
2018-Jun-18 00:58N 52°58' E 004°47'0 0.0
2018-Jun-18 00:10N 52°58' E 004°47'0 0.0
2018-Jun-17 23:58N 52°58' E 004°47'0 0.0
2018-Jun-17 23:13N 52°58' E 004°47'0 0.0
2018-Jun-17 22:52N 52°58' E 004°47'0 0.0
2018-Jun-17 22:28N 52°58' E 004°47'0 0.0
2018-Jun-17 21:52N 52°58' E 004°47'0 0.0
2018-Jun-17 21:25N 52°58' E 004°47'0 0.0
2018-Jun-17 20:58N 52°58' E 004°47'0 0.0
2018-Jun-17 20:13N 52°58' E 004°47'0 0.0
2018-Jun-17 19:55N 52°58' E 004°47'0 0.0
2018-Jun-17 19:13N 52°58' E 004°47'0 0.0
2018-Jun-17 18:58N 52°58' E 004°47'0 0.0
2018-Jun-17 17:58N 52°58' E 004°47'0 0.0
2018-Jun-17 17:13N 52°58' E 004°47'0 0.0
2018-Jun-17 16:58N 52°58' E 004°47'0 0.0
2018-Jun-17 16:25N 52°58' E 004°47'0 0.0
2018-Jun-17 15:13N 52°58' E 004°47'0 0.0
2018-Jun-17 14:55N 52°58' E 004°47'0 0.0
2018-Jun-17 14:25N 52°58' E 004°47'0 0.0
2018-Jun-17 13:25N 52°58' E 004°47'0 0.0
2018-Jun-17 11:40N 52°58' E 004°47'0 0.0
2018-Jun-17 10:52N 52°58' E 004°47'0 0.0
2018-Jun-17 10:25N 52°58' E 004°47'0 0.0
2018-Jun-17 09:58N 52°58' E 004°47'0 0.0
2018-Jun-17 09:25N 52°58' E 004°47'0 0.0
2018-Jun-17 08:58N 52°58' E 004°47'0 0.0
2018-Jun-17 08:25N 52°58' E 004°47'0 0.0
2018-Jun-17 07:55N 52°58' E 004°47'0 0.0
2018-Jun-17 07:25N 52°58' E 004°47'0 0.0
2018-Jun-17 06:55N 52°58' E 004°47'0 0.0
2018-Jun-17 01:55N 52°58' E 004°47'0 0.0
2018-Jun-17 01:25N 52°58' E 004°47'0 0.0
2018-Jun-17 00:58N 52°58' E 004°47'0 0.0
2018-Jun-17 00:13N 52°58' E 004°47'0 0.0
2018-Jun-16 23:43N 52°58' E 004°47'0 0.0
2018-Jun-16 23:25N 52°58' E 004°47'0 0.0
2018-Jun-16 22:52N 52°58' E 004°47'0 0.0
2018-Jun-16 22:25N 52°58' E 004°47'0 0.0
2018-Jun-16 21:55N 52°58' E 004°47'0 0.0
2018-Jun-16 21:13N 52°58' E 004°47'0 0.0
2018-Jun-16 20:49N 52°58' E 004°47'0 0.0
2018-Jun-16 20:19N 52°58' E 004°47'0 0.0
2018-Jun-16 19:58N 52°58' E 004°47'0 0.0
2018-Jun-16 19:13N 52°58' E 004°47'0 0.0
2018-Jun-16 18:58N 52°58' E 004°47'0 0.0
2018-Jun-16 18:28N 52°58' E 004°47'0 0.0
2018-Jun-16 17:58N 52°58' E 004°47'0 0.0
2018-Jun-16 17:28N 52°58' E 004°47'0 0.0
2018-Jun-16 16:58N 52°58' E 004°47'0 0.0
2018-Jun-16 15:43N 52°58' E 004°47'0 0.0
2018-Jun-16 11:12N 52°58' E 004°47'0 0.0
2018-Jun-16 10:48N 52°58' E 004°47'0 0.0
2018-Jun-16 10:30N 52°58' E 004°47'0 0.0
2018-Jun-16 09:57N 52°58' E 004°47'0 0.0
2018-Jun-16 09:12N 52°58' E 004°47'0 0.0
2018-Jun-16 09:00N 52°58' E 004°47'0 0.0
2018-Jun-16 08:18N 52°58' E 004°47'0 0.0
2018-Jun-16 05:09N 52°58' E 004°47'0 0.0
2018-Jun-16 03:33N 52°58' E 004°47'0 0.0
2018-Jun-16 03:09N 52°58' E 004°47'0 0.0
2018-Jun-16 03:00N 52°58' E 004°47'0 0.0
2018-Jun-16 02:18N 52°58' E 004°47'0 0.0
2018-Jun-16 01:45N 52°58' E 004°47'0 0.0
2018-Jun-16 01:24N 52°58' E 004°47'0 0.0
2018-Jun-16 01:00N 52°58' E 004°47'0 0.0
2018-Jun-16 00:24N 52°58' E 004°47'0 0.0
2018-Jun-15 23:57N 52°58' E 004°47'0 0.0
2018-Jun-15 17:00N 52°58' E 004°47'0 0.0
2018-Jun-15 15:30N 52°58' E 004°47'0 0.0
2018-Jun-15 14:57N 52°58' E 004°47'0 0.0
2018-Jun-15 14:27N 52°58' E 004°47'0 0.0
2018-Jun-15 14:00N 52°58' E 004°47'0 0.0
2018-Jun-15 13:30N 52°58' E 004°47'0 0.0
2018-Jun-15 13:00N 52°58' E 004°47'0 0.0
2018-Jun-15 12:24N 52°58' E 004°47'0 0.0
2018-Jun-15 12:00N 52°58' E 004°47'0 0.0
2018-Jun-15 11:30N 52°58' E 004°47'0 0.0
2018-Jun-15 10:59N 52°58' E 004°47'0 0.0
2018-Jun-15 10:25N 52°58' E 004°47'0 0.0
2018-Jun-15 10:00N 52°58' E 004°47'0 0.0
2018-Jun-15 09:30N 52°58' E 004°47'0 0.0
2018-Jun-15 09:00N 52°58' E 004°47'0 0.0
2018-Jun-15 08:27N 52°58' E 004°47'0 0.0
2018-Jun-15 08:00N 52°58' E 004°47'0 0.0
2018-Jun-15 07:17N 52°58' E 004°47'0 1.5
2018-Jun-15 07:00N 52°58' E 004°47'2 3.6
2018-Jun-15 06:30N 52°59' E 004°49'2 3.6
2018-Jun-15 06:00N 53°01' E 004°51'2 3.4
2018-Jun-15 05:30N 53°02' E 004°54'2 3.5
2018-Jun-15 04:59N 53°02' E 004°56'2 3.8
2018-Jun-15 04:30N 53°03' E 004°59'1 1.7
2018-Jun-15 03:53N 53°03' E 005°01'0 0.0
2018-Jun-15 03:29N 53°03' E 005°01'0 0.1
2018-Jun-15 02:59N 53°03' E 005°01'0 0.0
2018-Jun-15 02:26N 53°03' E 005°01'0 0.0
2018-Jun-15 01:59N 53°03' E 005°01'0 0.0
2018-Jun-15 01:29N 53°03' E 005°01'0 0.0
2018-Jun-15 00:56N 53°03' E 005°01'0 0.0
2018-Jun-15 00:26N 53°03' E 005°01'0 0.0
2018-Jun-14 23:56N 53°03' E 005°01'0 0.0
2018-Jun-14 23:29N 53°03' E 005°01'0 0.0
2018-Jun-14 22:59N 53°03' E 005°01'0 0.0
2018-Jun-14 22:29N 53°03' E 005°01'0 0.0
2018-Jun-14 21:59N 53°03' E 005°01'0 0.0
2018-Jun-14 21:26N 53°03' E 005°01'0 0.0
2018-Jun-14 20:53N 53°03' E 005°01'0 0.0
2018-Jun-14 20:29N 53°03' E 005°01'0 0.0
2018-Jun-14 19:59N 53°03' E 005°01'0 0.0
2018-Jun-14 19:23N 53°03' E 005°01'0 0.0
2018-Jun-14 18:56N 53°03' E 005°01'0 0.0
2018-Jun-14 18:29N 53°03' E 005°01'0 0.0
2018-Jun-14 17:56N 53°03' E 005°01'0 0.0
2018-Jun-14 17:26N 53°03' E 005°01'0 0.0
2018-Jun-14 16:59N 53°03' E 005°01'0 0.0
2018-Jun-14 16:29N 53°03' E 005°01'0 0.0
2018-Jun-14 15:59N 53°03' E 005°01'0 0.0
2018-Jun-14 15:29N 53°03' E 005°01'0 0.6
2018-Jun-14 15:00N 53°03' E 005°01'0 0.7
2018-Jun-14 14:30N 53°04' E 005°01'2 4.3
2018-Jun-14 14:00N 53°02' E 005°04'2 4.2
2018-Jun-14 13:30N 53°02' E 005°08'2 3.8
2018-Jun-14 13:00N 53°03' E 005°11'2 3.9
2018-Jun-14 12:30N 53°03' E 005°14'2 4.9
2018-Jun-14 12:00N 53°05' E 005°17'2 4.4
2018-Jun-14 11:30N 53°05' E 005°21'3 6.2
2018-Jun-14 11:00N 53°08' E 005°23'3 5.1
2018-Jun-14 10:30N 53°11' E 005°23'4 7.2
2018-Jun-14 10:00N 53°12' E 005°18'3 6.7
2018-Jun-14 09:30N 53°14' E 005°13'3 5.8
2018-Jun-14 09:00N 53°16' E 005°10'3 5.3
2018-Jun-14 08:31N 53°18' E 005°13'2 3.8
2018-Jun-14 08:00N 53°20' E 005°14'2 3.6
2018-Jun-14 07:28N 53°22' E 005°13'0 0.0
2018-Jun-14 06:52N 53°22' E 005°13'0 0.0
2018-Jun-14 06:25N 53°22' E 005°13'0 0.0
2018-Jun-14 05:58N 53°22' E 005°13'0 0.0
2018-Jun-14 05:28N 53°22' E 005°13'0 0.0
2018-Jun-14 04:58N 53°22' E 005°13'0 0.0
2018-Jun-14 04:25N 53°22' E 005°13'0 0.0
2018-Jun-14 03:58N 53°22' E 005°13'0 0.0
2018-Jun-14 03:25N 53°22' E 005°13'0 0.0
2018-Jun-14 02:55N 53°22' E 005°13'0 0.0
2018-Jun-14 02:28N 53°22' E 005°13'0 0.0
2018-Jun-14 01:55N 53°22' E 005°13'0 0.0
2018-Jun-14 01:25N 53°22' E 005°13'0 0.0
2018-Jun-14 00:55N 53°22' E 005°13'0 0.0
2018-Jun-14 00:28N 53°22' E 005°13'0 0.0
2018-Jun-13 23:58N 53°22' E 005°13'0 0.0
2018-Jun-13 23:28N 53°22' E 005°13'0 0.0
2018-Jun-13 22:55N 53°22' E 005°13'0 0.0
2018-Jun-13 22:28N 53°22' E 005°13'0 0.0
2018-Jun-13 21:58N 53°22' E 005°13'0 0.0
2018-Jun-13 21:28N 53°22' E 005°13'0 0.0
2018-Jun-13 20:55N 53°22' E 005°13'0 0.0
2018-Jun-13 20:28N 53°22' E 005°13'0 0.6
2018-Jun-13 20:00N 53°21' E 005°13'3 5.7
2018-Jun-13 19:31N 53°20' E 005°09'2 4.7
2018-Jun-13 19:00N 53°19' E 005°05'4 7.6
2018-Jun-13 18:30N 53°19' E 004°59'1 2.7
2018-Jun-13 18:00N 53°20' E 004°58'3 5.6
2018-Jun-13 17:30N 53°23' E 005°00'2 4.7
2018-Jun-13 17:00N 53°25' E 005°03'2 4.5
2018-Jun-13 16:30N 53°26' E 005°06'2 4.8
2018-Jun-13 16:00N 53°28' E 005°09'2 4.3
2018-Jun-13 15:30N 53°30' E 005°10'298 6.8
2018-Jun-11 19:51N 58°27' E 005°01'3 7.1
2018-Jun-11 19:28N 58°30' E 005°01'3 6.6
2018-Jun-11 18:58N 58°33' E 005°01'3 6.0
2018-Jun-11 18:28N 58°36' E 005°02'3 6.3
2018-Jun-11 17:59N 58°39' E 005°02'3 6.5
2018-Jun-11 17:30N 58°42' E 005°03'3 6.5
2018-Jun-11 17:00N 58°46' E 005°04'3 6.3
2018-Jun-11 16:29N 58°49' E 005°04'3 6.2
2018-Jun-11 16:00N 58°52' E 005°04'3 6.4
2018-Jun-11 15:30N 58°55' E 005°05'3 6.6
2018-Jun-11 15:00N 58°58' E 005°07'4 7.2
2018-Jun-11 14:31N 59°01' E 005°11'4 7.2
2018-Jun-11 14:00N 59°04' E 005°15'3 6.0
2018-Jun-11 13:30N 59°06' E 005°19'3 5.3
2018-Jun-11 13:00N 59°07' E 005°24'2 4.4
2018-Jun-11 12:30N 59°08' E 005°28'1 3.0
2018-Jun-11 12:00N 59°07' E 005°30'1 3.0
2018-Jun-11 11:30N 59°06' E 005°31'1 2.2
2018-Jun-11 11:00N 59°05' E 005°32'1 1.9
2018-Jun-11 10:30N 59°04' E 005°33'1 2.7
2018-Jun-11 10:00N 59°03' E 005°35'1 2.7
2018-Jun-11 09:30N 59°02' E 005°37'2 3.1
2018-Jun-11 09:00N 59°01' E 005°39'2 4.9
2018-Jun-11 08:30N 59°02' E 005°44'1 1.5
2018-Jun-11 08:00N 59°02' E 005°45'0 0.0
2018-Jun-11 07:30N 59°02' E 005°45'0 0.0
2018-Jun-11 07:00N 59°02' E 005°45'0 0.0
2018-Jun-11 06:30N 59°02' E 005°45'0 0.0
2018-Jun-11 06:00N 59°02' E 005°45'0 0.0
2018-Jun-11 05:30N 59°02' E 005°45'0 0.0
2018-Jun-11 05:00N 59°02' E 005°45'0 0.0
2018-Jun-11 04:30N 59°02' E 005°45'0 0.0
2018-Jun-11 04:00N 59°02' E 005°45'0 0.0
2018-Jun-11 03:30N 59°02' E 005°45'0 0.0
2018-Jun-11 03:00N 59°02' E 005°45'0 0.0
2018-Jun-11 02:30N 59°02' E 005°45'0 0.0
2018-Jun-11 02:00N 59°02' E 005°45'0 0.0
2018-Jun-11 01:30N 59°02' E 005°45'0 0.0
2018-Jun-11 01:00N 59°02' E 005°45'0 0.0
2018-Jun-11 00:30N 59°02' E 005°45'0 0.0
2018-Jun-11 00:00N 59°02' E 005°45'0 0.0
2018-Jun-10 23:30N 59°02' E 005°45'0 0.0
2018-Jun-10 23:00N 59°02' E 005°45'0 0.0
2018-Jun-10 22:30N 59°02' E 005°45'0 0.0
2018-Jun-10 21:59N 59°02' E 005°45'0 0.0
2018-Jun-10 21:29N 59°02' E 005°45'0 0.0
2018-Jun-10 20:59N 59°02' E 005°45'0 0.0
2018-Jun-10 20:29N 59°02' E 005°45'0 0.8
2018-Jun-10 20:00N 59°02' E 005°45'3 5.6
2018-Jun-10 19:30N 59°01' E 005°40'3 6.4
2018-Jun-10 19:00N 59°03' E 005°35'3 6.2
2018-Jun-10 18:30N 59°06' E 005°31'3 6.6
2018-Jun-10 18:00N 59°07' E 005°26'3 6.6
2018-Jun-10 17:30N 59°09' E 005°21'3 6.6
2018-Jun-10 17:00N 59°12' E 005°20'3 6.6
2018-Jun-10 16:30N 59°16' E 005°20'  

Dump ship's entire track history